KSBM/SBM METAR and TAF weather

Enter ICAO airport designator
Station Type Date Time Source
KSBM METAR 2021/09/28 04:53 UTC NOAA

KSBM 280453Z AUTO 00000KT 10SM CLR 12/11 A2997 RMK AO2 SLP147 T01170106


Station Type Date Time Source
KSBM Decoded METAR 2021/09/28 04:53 UTC NOAA

SHEBOYGAN CO MEMORIAL AIRPORT , WI, United States (KSBM) 43-47N 87-51W 232M
Sep 28, 2021 - 12:53 AM EDT / 2021.09.28 0453 UTC
Wind: Calm:0
Visibility: 10 mile(s):0
Sky conditions: clear
Temperature: 53.1 F (11.7 C)
Dew Point: 51.1 F (10.6 C)
Relative Humidity: 92%
Pressure (altimeter): 29.97 in. Hg (1014 hPa)
ob: KSBM 280453Z AUTO 00000KT 10SM CLR 12/11 A2997 RMK AO2 SLP147 T01170106
cycle: 5

Station Type Date Time Source
KSBM TAF 2021/09/28 06:22 UTC NOAA

TAF KSBM 280520Z 2806/2906 04007KT P6SM FEW250
FM281500 10008KT P6SM FEW250
FM290300 00000KT P6SM FEW250

Example: see airport list